createdAt,value
2019-02-27T00:02:13.873Z,25.93
2019-02-27T00:04:43.483Z,25.07
2019-02-27T00:07:13.094Z,26.30
2019-02-27T00:09:42.725Z,24.93
2019-02-27T00:12:12.345Z,26.10
2019-02-27T00:14:41.982Z,26.33
2019-02-27T00:17:11.633Z,25.17
2019-02-27T00:19:41.297Z,25.03
2019-02-27T00:22:10.925Z,26.90
2019-02-27T00:24:40.623Z,27.43
2019-02-27T00:27:14.574Z,25.10
2019-02-27T00:29:41.698Z,23.27
2019-02-27T00:32:11.406Z,25.17
2019-02-27T00:34:41.070Z,25.60
2019-02-27T00:37:10.693Z,25.47
2019-02-27T00:39:40.322Z,23.40
2019-02-27T00:42:10.294Z,24.33
2019-02-27T00:44:41.021Z,24.43
2019-02-27T00:47:10.620Z,25.30
2019-02-27T00:49:40.264Z,25.63
2019-02-27T00:52:09.859Z,24.47
2019-02-27T00:54:39.546Z,26.10
2019-02-27T00:57:09.270Z,25.53
2019-02-27T00:59:38.945Z,25.70
2019-02-27T01:02:08.702Z,27.43
2019-02-27T01:04:38.437Z,26.30
2019-02-27T01:07:08.095Z,24.13
2019-02-27T01:09:39.527Z,24.40
2019-02-27T01:12:09.173Z,27.07
2019-02-27T01:14:38.903Z,26.27
2019-02-27T01:17:08.644Z,29.77
2019-02-27T01:19:39.246Z,25.50
2019-02-27T01:22:09.033Z,26.97
2019-02-27T01:24:38.730Z,27.00
2019-02-27T01:27:08.451Z,25.97
2019-02-27T01:29:38.126Z,24.47
2019-02-27T01:32:07.820Z,25.90
2019-02-27T01:34:37.538Z,27.23
2019-02-27T01:37:07.287Z,26.23
2019-02-27T01:39:37.081Z,27.43
2019-02-27T01:42:06.766Z,27.00
2019-02-27T01:44:36.454Z,26.80
2019-02-27T01:47:06.169Z,26.83
2019-02-27T01:49:35.860Z,24.63
2019-02-27T01:52:05.576Z,26.43
2019-02-27T01:54:35.257Z,26.23
2019-02-27T01:57:04.964Z,26.20
2019-02-27T01:59:34.683Z,24.10
2019-02-27T02:02:04.476Z,24.67
2019-02-27T02:04:34.184Z,24.13
2019-02-27T02:07:06.242Z,26.50
2019-02-27T02:09:36.681Z,25.20
2019-02-27T02:12:09.433Z,25.40
2019-02-27T02:14:44.864Z,24.30
2019-02-27T02:17:34.067Z,25.37
2019-02-27T02:20:18.337Z,26.40
2019-02-27T02:22:54.048Z,25.57
2019-02-27T02:25:29.698Z,25.60
2019-02-27T02:28:23.623Z,26.80
2019-02-27T02:31:07.870Z,26.20
2019-02-27T02:33:52.791Z,25.80
2019-02-27T02:36:45.107Z,23.73
2019-02-27T02:39:36.403Z,26.23
2019-02-27T02:42:40.582Z,25.33
2019-02-27T02:45:18.650Z,24.40
2019-02-27T02:48:00.111Z,24.63
2019-02-27T02:50:41.033Z,25.00
2019-02-27T02:53:25.201Z,26.03
2019-02-27T02:56:24.973Z,24.60
2019-02-27T02:59:28.357Z,23.67
2019-02-27T03:02:13.324Z,24.07
2019-02-27T03:05:01.014Z,26.40
2019-02-27T03:07:51.659Z,26.63
2019-02-27T03:10:24.498Z,26.43
2019-02-27T03:13:30.609Z,25.50
2019-02-27T03:16:12.363Z,25.77
2019-02-27T03:18:48.035Z,26.17
2019-02-27T03:21:35.889Z,23.90
2019-02-27T03:24:28.972Z,26.17
2019-02-27T03:27:16.689Z,25.40
2019-02-27T03:29:53.413Z,26.13
2019-02-27T03:32:23.898Z,26.50
2019-02-27T03:35:08.445Z,26.70
2019-02-27T03:37:59.174Z,25.27
2019-02-27T03:40:51.285Z,24.90
2019-02-27T03:43:45.672Z,25.53
2019-02-27T03:46:18.448Z,25.17
2019-02-27T03:48:51.207Z,26.47
2019-02-27T03:51:35.879Z,25.00
2019-02-27T03:54:20.652Z,24.80
2019-02-27T03:56:54.034Z,26.17
2019-02-27T03:59:44.768Z,23.93
2019-02-27T04:02:26.424Z,25.60
2019-02-27T04:05:08.061Z,24.20
2019-02-27T04:08:07.035Z,25.00
2019-02-27T04:10:32.287Z,24.50
2019-02-27T04:13:02.102Z,25.03
2019-02-27T04:15:31.834Z,25.00
2019-02-27T04:18:00.378Z,25.23
2019-02-27T04:20:30.091Z,27.93
2019-02-27T04:22:59.770Z,24.30
2019-02-27T04:25:31.341Z,24.17
2019-02-27T04:28:00.919Z,25.43
2019-02-27T04:30:30.683Z,24.77
2019-02-27T04:33:00.377Z,24.80
2019-02-27T04:35:30.085Z,25.73
2019-02-27T04:37:59.803Z,24.87
2019-02-27T04:40:29.512Z,24.50
2019-02-27T04:42:59.885Z,24.50
2019-02-27T04:45:29.720Z,23.77
2019-02-27T04:47:59.445Z,25.67
2019-02-27T04:50:29.172Z,24.57
2019-02-27T04:52:58.834Z,24.00
2019-02-27T04:55:28.572Z,24.90
2019-02-27T04:57:58.289Z,25.13
2019-02-27T05:00:27.982Z,25.30
2019-02-27T05:02:57.693Z,24.57
2019-02-27T05:05:27.412Z,24.87
2019-02-27T05:07:57.134Z,25.37
2019-02-27T05:10:26.876Z,24.57
2019-02-27T05:12:56.561Z,25.77
2019-02-27T05:15:26.331Z,24.63
2019-02-27T05:17:56.307Z,26.33
2019-02-27T05:20:25.985Z,24.83
2019-02-27T05:23:00.116Z,24.67
2019-02-27T05:25:27.248Z,24.77
2019-02-27T05:28:01.014Z,26.87
2019-02-27T05:30:28.317Z,23.40
2019-02-27T05:33:01.800Z,24.10
2019-02-27T05:35:29.503Z,26.60
2019-02-27T05:37:59.161Z,25.73
2019-02-27T05:40:28.898Z,23.97
2019-02-27T05:42:58.584Z,24.43
2019-02-27T05:45:31.193Z,25.23
2019-02-27T05:47:59.710Z,25.47
2019-02-27T05:50:34.009Z,24.83
2019-02-27T05:53:00.866Z,24.57
2019-02-27T05:55:30.580Z,24.00
2019-02-27T05:58:00.261Z,23.90
2019-02-27T06:00:30.461Z,23.60
2019-02-27T06:03:00.141Z,23.73
2019-02-27T06:05:29.881Z,23.67
2019-02-27T06:08:02.074Z,23.47
2019-02-27T06:10:30.982Z,25.37
2019-02-27T06:13:00.678Z,25.63
2019-02-27T06:15:30.421Z,25.43
2019-02-27T06:18:00.109Z,26.57
2019-02-27T06:20:29.850Z,23.27
2019-02-27T06:23:04.225Z,22.97
2019-02-27T06:25:30.895Z,25.53
2019-02-27T06:28:00.590Z,24.10
2019-02-27T06:30:30.597Z,24.10
2019-02-27T06:33:01.091Z,22.83
2019-02-27T06:35:33.512Z,21.83
2019-02-27T06:38:02.218Z,23.83
2019-02-27T06:40:31.927Z,23.20
2019-02-27T06:43:01.625Z,24.57
2019-02-27T06:45:31.315Z,22.93
2019-02-27T06:48:01.059Z,21.80
2019-02-27T06:50:30.746Z,20.17
2019-02-27T06:53:00.445Z,21.37
2019-02-27T06:55:30.148Z,21.23
2019-02-27T06:57:59.884Z,20.57
2019-02-27T07:00:29.565Z,21.60
2019-02-27T07:02:59.265Z,20.20
2019-02-27T07:05:28.971Z,21.93
2019-02-27T07:07:58.669Z,19.97
2019-02-27T07:10:28.334Z,18.73
2019-02-27T07:12:58.023Z,20.60
2019-02-27T07:15:27.802Z,18.30
2019-02-27T07:17:57.585Z,18.67
2019-02-27T07:21:09.367Z,20.10
2019-02-27T07:23:38.966Z,18.53
2019-02-27T07:26:08.690Z,18.93
2019-02-27T07:28:38.370Z,19.43
2019-02-27T07:31:08.001Z,19.03
2019-02-27T07:33:40.167Z,18.70
2019-02-27T07:36:10.679Z,20.23
2019-02-27T07:38:40.307Z,19.77
2019-02-27T07:41:10.610Z,19.17
2019-02-27T07:43:40.257Z,18.57
2019-02-27T07:46:11.396Z,19.70
2019-02-27T07:48:41.030Z,17.90
2019-02-27T07:51:10.662Z,19.17
2019-02-27T07:53:40.758Z,18.33
2019-02-27T07:56:10.567Z,17.83
2019-02-27T07:58:44.915Z,17.70
2019-02-27T08:01:15.083Z,18.27
2019-02-27T08:03:45.736Z,18.40
2019-02-27T08:06:15.501Z,19.73
2019-02-27T08:08:45.292Z,18.27
2019-02-27T08:11:15.571Z,17.87
2019-02-27T08:13:45.268Z,18.83
2019-02-27T08:16:14.965Z,18.13
2019-02-27T08:18:53.092Z,18.80
2019-02-27T08:21:34.064Z,18.20
2019-02-27T08:24:07.415Z,16.93
2019-02-27T08:26:37.416Z,19.03
2019-02-27T08:29:07.078Z,18.73
2019-02-27T08:31:36.714Z,20.87
2019-02-27T08:34:06.373Z,19.27
2019-02-27T08:36:36.194Z,18.43
2019-02-27T08:39:06.655Z,17.87
2019-02-27T08:41:36.319Z,17.70
2019-02-27T08:44:06.024Z,18.83
2019-02-27T08:46:37.013Z,19.10
2019-02-27T08:49:07.176Z,18.80
2019-02-27T08:51:36.892Z,18.80
2019-02-27T08:54:06.567Z,18.60
2019-02-27T08:56:36.245Z,17.57
2019-02-27T08:59:06.137Z,17.90
2019-02-27T09:01:37.784Z,17.73
2019-02-27T09:04:11.377Z,17.57
2019-02-27T09:06:38.929Z,17.43
2019-02-27T09:09:08.597Z,17.57
2019-02-27T09:11:40.035Z,17.17
2019-02-27T09:14:11.899Z,19.17
2019-02-27T09:16:40.957Z,17.33
2019-02-27T09:21:40.311Z,16.63
2019-02-27T09:24:09.994Z,17.33
2019-02-27T09:26:39.702Z,18.17
2019-02-27T09:29:09.419Z,17.53
2019-02-27T09:31:39.114Z,17.90
2019-02-27T09:34:08.800Z,18.27
2019-02-27T09:36:43.031Z,18.20
2019-02-27T09:39:09.924Z,18.47
2019-02-27T09:41:39.612Z,18.83
2019-02-27T09:44:09.352Z,18.80
2019-02-27T09:46:39.850Z,18.17
2019-02-27T09:49:09.539Z,19.57
2019-02-27T09:51:39.203Z,19.27
2019-02-27T09:54:11.056Z,20.03
2019-02-27T09:56:40.208Z,19.27
2019-02-27T09:59:09.869Z,19.23
2019-02-27T10:01:39.543Z,18.77
2019-02-27T10:04:09.747Z,18.93
2019-02-27T10:06:40.474Z,18.80
2019-02-27T10:09:13.172Z,20.03
2019-02-27T10:11:42.834Z,19.07
2019-02-27T10:14:14.172Z,18.97
2019-02-27T10:16:43.895Z,18.37
2019-02-27T10:19:13.633Z,16.83
2019-02-27T10:21:44.601Z,19.17
2019-02-27T10:24:14.879Z,17.97
2019-02-27T10:26:44.553Z,18.27
2019-02-27T10:29:14.276Z,18.20
2019-02-27T10:31:43.991Z,18.97
2019-02-27T10:34:14.594Z,18.10
2019-02-27T10:36:45.023Z,18.03
2019-02-27T10:39:14.678Z,19.10
2019-02-27T10:41:44.950Z,17.03
2019-02-27T10:44:14.661Z,17.60
2019-02-27T10:46:44.321Z,18.30
2019-02-27T10:49:13.989Z,16.93
2019-02-27T10:51:44.383Z,17.67
2019-02-27T10:54:14.115Z,16.33
2019-02-27T10:56:43.776Z,17.47
2019-02-27T10:59:13.436Z,17.20
2019-02-27T11:01:43.200Z,18.20
2019-02-27T11:04:12.838Z,16.53
2019-02-27T11:06:42.777Z,17.27
2019-02-27T11:09:15.416Z,17.30
2019-02-27T11:11:45.088Z,16.73
2019-02-27T11:14:14.738Z,18.27
2019-02-27T11:16:44.425Z,16.40
2019-02-27T11:19:16.567Z,19.93
2019-02-27T11:21:45.455Z,17.67
2019-02-27T11:24:17.331Z,17.90
2019-02-27T11:26:46.499Z,16.90
2019-02-27T11:29:16.173Z,18.40
2019-02-27T11:31:46.158Z,19.17
2019-02-27T11:34:16.223Z,17.97
2019-02-27T11:36:46.031Z,19.77
2019-02-27T11:39:15.912Z,18.80
2019-02-27T11:41:46.119Z,19.67
2019-02-27T11:44:16.957Z,19.47
2019-02-27T11:46:46.661Z,19.30
2019-02-27T11:49:16.334Z,18.57
2019-02-27T11:51:46.008Z,19.67
2019-02-27T11:54:15.681Z,20.53
2019-02-27T11:56:45.339Z,20.07
2019-02-27T11:59:14.995Z,21.00
2019-02-27T12:01:44.678Z,18.80
2019-02-27T12:04:14.351Z,21.27
2019-02-27T12:06:44.045Z,20.97
2019-02-27T12:09:13.764Z,20.53
2019-02-27T12:11:48.305Z,19.77
2019-02-27T12:14:14.896Z,20.77
2019-02-27T12:16:44.540Z,20.00
2019-02-27T12:19:14.407Z,22.30
2019-02-27T12:21:44.062Z,20.50
2019-02-27T12:24:16.327Z,19.20
2019-02-27T12:26:46.119Z,20.10
2019-02-27T12:29:15.790Z,21.33
2019-02-27T12:31:48.222Z,19.93
2019-02-27T12:34:16.846Z,19.83
2019-02-27T12:36:46.492Z,19.63
2019-02-27T12:39:16.158Z,20.77
2019-02-27T12:41:45.800Z,19.90
2019-02-27T12:44:15.559Z,20.07
2019-02-27T12:46:45.208Z,19.90
2019-02-27T12:49:16.925Z,18.80
2019-02-27T12:52:22.692Z,20.73
2019-02-27T12:54:52.129Z,20.23
2019-02-27T12:57:34.020Z,20.63
2019-02-27T13:00:05.809Z,20.53
2019-02-27T13:02:36.899Z,20.60
2019-02-27T13:05:09.811Z,20.67
2019-02-27T13:07:39.476Z,20.43
2019-02-27T13:10:13.340Z,19.33
2019-02-27T13:12:43.077Z,20.20
2019-02-27T13:15:18.282Z,21.47
2019-02-27T13:17:48.085Z,21.13
2019-02-27T13:20:19.984Z,19.50
2019-02-27T13:22:49.675Z,20.73
2019-02-27T13:25:21.380Z,20.20
2019-02-27T13:27:50.818Z,20.97
2019-02-27T13:30:23.538Z,21.50
2019-02-27T13:32:53.224Z,20.13
2019-02-27T13:35:23.976Z,19.43
2019-02-27T13:37:53.878Z,20.63
2019-02-27T13:40:25.821Z,18.83
2019-02-27T13:42:55.481Z,19.60
2019-02-27T13:45:29.274Z,18.53
2019-02-27T13:47:59.173Z,19.10
2019-02-27T13:50:28.963Z,18.80
2019-02-27T13:52:59.003Z,17.23
2019-02-27T13:55:28.719Z,17.77
2019-02-27T13:57:59.183Z,18.90
2019-02-27T14:00:31.385Z,17.40
2019-02-27T14:03:01.073Z,18.10
2019-02-27T14:05:35.075Z,17.40
2019-02-27T14:08:02.087Z,17.63
2019-02-27T14:10:33.753Z,16.80
2019-02-27T14:13:08.775Z,16.80
2019-02-27T14:15:35.018Z,16.73
2019-02-27T14:18:04.670Z,15.40
2019-02-27T14:20:34.340Z,15.13
2019-02-27T14:23:04.067Z,15.67
2019-02-27T14:25:34.203Z,15.40
2019-02-27T14:28:03.922Z,14.67
2019-02-27T14:30:39.366Z,15.13
2019-02-27T14:33:10.944Z,14.70
2019-02-27T14:35:40.391Z,14.60
2019-02-27T14:38:10.035Z,14.40
2019-02-27T14:40:41.216Z,14.23
2019-02-27T14:43:11.036Z,14.13
2019-02-27T14:45:41.078Z,15.43
2019-02-27T14:48:11.029Z,15.00
2019-02-27T14:50:40.663Z,15.83
2019-02-27T14:53:10.845Z,15.63
2019-02-27T14:55:40.549Z,14.77
2019-02-27T14:58:12.216Z,16.60
2019-02-27T15:00:41.958Z,15.60
2019-02-27T15:03:11.633Z,16.03
2019-02-27T15:05:44.740Z,16.73
2019-02-27T15:08:14.873Z,16.57
2019-02-27T15:10:44.671Z,18.10
2019-02-27T15:13:14.457Z,17.07
2019-02-27T15:15:44.491Z,19.37
2019-02-27T15:18:15.117Z,19.83
2019-02-27T15:20:45.825Z,18.37
2019-02-27T15:23:16.591Z,18.60
2019-02-27T15:25:46.223Z,19.83
2019-02-27T15:28:16.104Z,18.57
2019-02-27T15:30:46.625Z,18.80
2019-02-27T15:33:16.991Z,19.77
2019-02-27T15:35:46.665Z,19.93
2019-02-27T15:38:16.310Z,21.30
2019-02-27T15:40:45.996Z,20.60
2019-02-27T15:43:17.287Z,20.93
2019-02-27T15:45:48.838Z,21.53
2019-02-27T15:48:19.053Z,21.80
2019-02-27T15:50:48.743Z,21.90
2019-02-27T15:53:18.606Z,21.00
2019-02-27T15:55:48.975Z,22.50
2019-02-27T15:58:18.683Z,21.83
2019-02-27T16:00:52.183Z,21.07
2019-02-27T16:03:19.936Z,22.83
2019-02-27T16:05:49.655Z,22.73
2019-02-27T16:08:20.182Z,21.40
2019-02-27T16:10:54.745Z,21.10
2019-02-27T16:13:22.261Z,22.60
2019-02-27T16:15:51.966Z,22.40
2019-02-27T16:18:21.675Z,22.20
2019-02-27T16:20:51.358Z,24.20
2019-02-27T16:23:21.018Z,20.93
2019-02-27T16:25:53.757Z,20.03
2019-02-27T16:28:22.111Z,21.97
2019-02-27T16:30:51.785Z,20.67
2019-02-27T16:33:23.883Z,19.40
2019-02-27T16:35:52.831Z,22.07
2019-02-27T16:38:22.540Z,18.53
2019-02-27T16:40:53.462Z,20.60
2019-02-27T16:43:26.843Z,17.77
2019-02-27T16:45:56.496Z,20.20
2019-02-27T16:48:26.162Z,18.43
2019-02-27T16:50:57.467Z,19.33
2019-02-27T16:53:27.181Z,21.73
2019-02-27T16:55:56.883Z,21.53
2019-02-27T16:58:32.785Z,20.03
2019-02-27T17:00:58.602Z,20.53
2019-02-27T17:03:28.387Z,21.73
2019-02-27T17:05:58.084Z,21.93
2019-02-27T17:08:28.388Z,20.80
2019-02-27T17:10:59.696Z,22.57
2019-02-27T17:13:29.430Z,21.17
2019-02-27T17:15:59.085Z,21.80
2019-02-27T17:18:29.314Z,22.50
2019-02-27T17:20:58.939Z,21.07
2019-02-27T17:23:28.629Z,21.30
2019-02-27T17:26:03.449Z,20.80
2019-02-27T17:28:29.750Z,20.93
2019-02-27T17:31:01.677Z,20.57
2019-02-27T17:33:31.589Z,20.07
2019-02-27T17:36:01.416Z,21.47
2019-02-27T17:38:31.095Z,20.87
2019-02-27T17:41:00.852Z,21.80
2019-02-27T17:43:30.553Z,22.27
2019-02-27T17:46:00.433Z,20.60
2019-02-27T17:48:30.316Z,21.97
2019-02-27T17:51:00.002Z,20.97
2019-02-27T17:53:29.674Z,22.80
2019-02-27T17:55:59.338Z,23.33
2019-02-27T17:58:31.879Z,23.07
2019-02-27T18:01:04.803Z,20.60
2019-02-27T18:03:36.663Z,21.40
2019-02-27T18:06:05.984Z,21.57
2019-02-27T18:08:35.681Z,20.97
2019-02-27T18:11:05.449Z,22.50
2019-02-27T18:13:36.212Z,21.80
2019-02-27T18:16:05.998Z,21.30
2019-02-27T18:18:35.813Z,21.50
2019-02-27T18:21:05.555Z,21.23
2019-02-27T18:23:35.228Z,19.43
2019-02-27T18:26:05.002Z,21.73
2019-02-27T18:28:34.748Z,20.07
2019-02-27T18:31:04.698Z,20.77
2019-02-27T18:33:34.373Z,20.80
2019-02-27T18:36:04.888Z,21.17
2019-02-27T18:38:35.411Z,20.87
2019-02-27T18:41:05.080Z,21.30
2019-02-27T18:43:34.877Z,20.90
2019-02-27T18:46:04.714Z,20.57
2019-02-27T18:48:34.457Z,21.57
2019-02-27T18:51:04.192Z,20.20
2019-02-27T18:53:33.963Z,27.93
2019-02-27T18:56:03.651Z,29.73
2019-02-27T18:58:33.347Z,28.20
2019-02-27T19:01:03.448Z,26.37
2019-02-27T19:03:33.241Z,23.50
2019-02-27T19:06:02.982Z,21.83
2019-02-27T19:08:32.648Z,20.63
2019-02-27T19:11:02.424Z,21.53
2019-02-27T19:13:32.427Z,22.93
2019-02-27T19:16:09.132Z,24.03
2019-02-27T19:18:41.163Z,26.40
2019-02-27T19:21:10.904Z,23.90
2019-02-27T19:23:40.878Z,24.40
2019-02-27T19:26:10.830Z,24.23
2019-02-27T19:28:40.735Z,22.03
2019-02-27T19:31:10.591Z,23.57
2019-02-27T19:33:40.865Z,20.43
2019-02-27T19:36:18.864Z,20.07
2019-02-27T19:38:44.247Z,19.47
2019-02-27T19:41:15.049Z,20.37
2019-02-27T19:43:44.772Z,22.70
2019-02-27T19:46:14.448Z,22.20
2019-02-27T19:48:44.167Z,21.03
2019-02-27T19:51:14.171Z,21.27
2019-02-27T19:53:43.873Z,22.17
2019-02-27T19:56:13.713Z,20.63
2019-02-27T19:58:43.358Z,20.67
2019-02-27T20:01:13.174Z,20.20
2019-02-27T20:03:42.903Z,20.57
2019-02-27T20:06:12.670Z,19.90
2019-02-27T20:08:45.337Z,20.03
2019-02-27T20:11:13.956Z,21.10
2019-02-27T20:13:43.820Z,19.77
2019-02-27T20:16:13.478Z,22.43
2019-02-27T20:18:43.627Z,23.47
2019-02-27T20:21:14.083Z,26.63
2019-02-27T20:23:43.737Z,27.20
2019-02-27T20:26:14.303Z,26.67
2019-02-27T20:28:44.129Z,23.23
2019-02-27T20:31:17.949Z,22.23
2019-02-27T20:33:45.249Z,22.00
2019-02-27T20:36:14.922Z,22.23
2019-02-27T20:38:47.470Z,22.33
2019-02-27T20:41:16.362Z,24.93
2019-02-27T20:43:46.079Z,20.93
2019-02-27T20:46:16.975Z,22.13
2019-02-27T20:48:46.660Z,21.77
2019-02-27T20:51:16.491Z,22.57
2019-02-27T20:53:46.238Z,21.67
2019-02-27T20:56:16.161Z,21.77
2019-02-27T20:58:51.076Z,23.63
2019-02-27T21:01:17.502Z,22.30
2019-02-27T21:03:47.250Z,25.03
2019-02-27T21:06:16.964Z,24.07
2019-02-27T21:08:46.713Z,26.63
2019-02-27T21:11:16.600Z,26.43
2019-02-27T21:13:49.343Z,24.80
2019-02-27T21:16:18.295Z,26.17
2019-02-27T21:18:48.045Z,26.10
2019-02-27T21:21:19.809Z,25.43
2019-02-27T21:23:49.237Z,26.07
2019-02-27T21:26:19.962Z,25.27
2019-02-27T21:28:58.179Z,26.17
2019-02-27T21:31:26.499Z,28.00
2019-02-27T21:33:53.297Z,26.53
2019-02-27T21:36:23.185Z,26.63
2019-02-27T21:38:52.889Z,25.27
2019-02-27T21:41:22.523Z,24.50
2019-02-27T21:43:52.179Z,25.40
2019-02-27T21:46:21.918Z,26.63
2019-02-27T21:48:51.597Z,26.30
2019-02-27T21:51:21.309Z,26.50
2019-02-27T21:53:51.032Z,27.13
2019-02-27T21:56:20.671Z,27.17
2019-02-27T21:58:50.431Z,26.93
2019-02-27T22:01:21.994Z,28.67
2019-02-27T22:03:51.579Z,31.00
2019-02-27T22:06:24.683Z,32.27
2019-02-27T22:08:53.719Z,29.50
2019-02-27T22:11:24.201Z,30.43
2019-02-27T22:13:54.729Z,29.17
2019-02-27T22:16:29.489Z,30.93
2019-02-27T22:18:55.743Z,32.30
2019-02-27T22:21:25.403Z,32.80
2019-02-27T22:23:57.823Z,32.73
2019-02-27T22:26:27.597Z,31.60
2019-02-27T22:28:57.319Z,31.17
2019-02-27T22:31:26.974Z,32.67
2019-02-27T22:33:57.749Z,30.70
2019-02-27T22:36:27.400Z,32.10
2019-02-27T22:39:00.164Z,32.67
2019-02-27T22:41:28.456Z,32.67
2019-02-27T22:43:58.260Z,32.77
2019-02-27T22:46:27.907Z,34.17
2019-02-27T22:49:00.013Z,32.73
2019-02-27T22:51:29.020Z,32.17
2019-02-27T22:53:59.429Z,32.53
2019-02-27T22:56:30.067Z,33.73
2019-02-27T22:59:03.162Z,35.33
2019-02-27T23:01:36.985Z,34.33
2019-02-27T23:04:06.911Z,34.53
2019-02-27T23:06:36.573Z,33.77
2019-02-27T23:09:08.978Z,36.17
2019-02-27T23:11:39.717Z,35.20
2019-02-27T23:14:09.593Z,34.77
2019-02-27T23:16:39.618Z,35.83
2019-02-27T23:19:11.999Z,36.47
2019-02-27T23:21:40.687Z,35.47
2019-02-27T23:24:10.974Z,36.70
2019-02-27T23:26:40.656Z,35.60
2019-02-27T23:29:10.306Z,35.97
2019-02-27T23:31:39.961Z,38.67
2019-02-27T23:34:09.679Z,37.30
2019-02-27T23:36:39.340Z,37.13
2019-02-27T23:39:09.706Z,39.77
2019-02-27T23:41:39.408Z,37.23
2019-02-27T23:44:09.101Z,39.13
2019-02-27T23:46:38.805Z,40.00
2019-02-27T23:49:08.453Z,38.37
2019-02-27T23:51:38.280Z,39.00
2019-02-27T23:54:07.972Z,38.47
2019-02-27T23:56:37.726Z,39.07
2019-02-27T23:59:07.408Z,39.03
